sensor_id;sensor_type;location;lat;lon;timestamp;P1;durP1;ratioP1;P2;durP2;ratioP2
15063;SDS011;7631;52.088;5.088;2024-01-11T00:00:01;8.63;;;5.77;;
15063;SDS011;7631;52.088;5.088;2024-01-11T00:02:27;9.50;;;6.17;;
15063;SDS011;7631;52.088;5.088;2024-01-11T00:04:52;8.63;;;6.10;;
15063;SDS011;7631;52.088;5.088;2024-01-11T00:07:18;9.23;;;6.33;;
15063;SDS011;7631;52.088;5.088;2024-01-11T00:09:43;10.47;;;7.23;;
15063;SDS011;7631;52.088;5.088;2024-01-11T00:12:09;11.80;;;6.70;;
15063;SDS011;7631;52.088;5.088;2024-01-11T00:14:34;10.10;;;6.43;;
15063;SDS011;7631;52.088;5.088;2024-01-11T00:17:00;9.53;;;6.23;;
15063;SDS011;7631;52.088;5.088;2024-01-11T00:19:25;11.80;;;6.77;;
15063;SDS011;7631;52.088;5.088;2024-01-11T00:21:50;11.47;;;6.87;;
15063;SDS011;7631;52.088;5.088;2024-01-11T00:24:16;11.20;;;6.50;;
15063;SDS011;7631;52.088;5.088;2024-01-11T00:26:41;9.93;;;6.70;;
15063;SDS011;7631;52.088;5.088;2024-01-11T00:29:06;9.67;;;6.70;;
15063;SDS011;7631;52.088;5.088;2024-01-11T00:31:32;10.33;;;7.10;;
15063;SDS011;7631;52.088;5.088;2024-01-11T00:33:57;11.37;;;6.70;;
15063;SDS011;7631;52.088;5.088;2024-01-11T00:36:22;9.23;;;6.23;;
15063;SDS011;7631;52.088;5.088;2024-01-11T00:38:47;9.70;;;6.43;;
15063;SDS011;7631;52.088;5.088;2024-01-11T00:41:13;10.63;;;6.83;;
15063;SDS011;7631;52.088;5.088;2024-01-11T00:43:38;9.97;;;6.63;;
15063;SDS011;7631;52.088;5.088;2024-01-11T00:46:03;9.93;;;6.67;;
15063;SDS011;7631;52.088;5.088;2024-01-11T00:48:28;11.33;;;7.37;;
15063;SDS011;7631;52.088;5.088;2024-01-11T00:50:53;9.97;;;6.83;;
15063;SDS011;7631;52.088;5.088;2024-01-11T00:53:19;10.20;;;6.57;;
15063;SDS011;7631;52.088;5.088;2024-01-11T00:55:44;10.43;;;6.77;;
15063;SDS011;7631;52.088;5.088;2024-01-11T00:58:09;11.07;;;7.07;;
15063;SDS011;7631;52.088;5.088;2024-01-11T01:00:34;10.37;;;6.93;;
15063;SDS011;7631;52.088;5.088;2024-01-11T01:03:00;11.07;;;7.07;;
15063;SDS011;7631;52.088;5.088;2024-01-11T01:05:25;9.63;;;6.77;;
15063;SDS011;7631;52.088;5.088;2024-01-11T01:07:50;10.83;;;6.97;;
15063;SDS011;7631;52.088;5.088;2024-01-11T01:10:15;11.73;;;7.23;;
15063;SDS011;7631;52.088;5.088;2024-01-11T01:12:41;9.20;;;6.37;;
15063;SDS011;7631;52.088;5.088;2024-01-11T01:15:06;9.53;;;6.40;;
15063;SDS011;7631;52.088;5.088;2024-01-11T01:17:31;11.13;;;7.27;;
15063;SDS011;7631;52.088;5.088;2024-01-11T01:19:56;11.93;;;7.57;;
15063;SDS011;7631;52.088;5.088;2024-01-11T01:22:22;10.50;;;6.53;;
15063;SDS011;7631;52.088;5.088;2024-01-11T01:24:47;11.90;;;7.00;;
15063;SDS011;7631;52.088;5.088;2024-01-11T01:27:13;11.00;;;7.00;;
15063;SDS011;7631;52.088;5.088;2024-01-11T01:29:38;10.50;;;6.83;;
15063;SDS011;7631;52.088;5.088;2024-01-11T01:32:03;9.33;;;6.13;;
15063;SDS011;7631;52.088;5.088;2024-01-11T01:34:29;10.17;;;6.73;;
15063;SDS011;7631;52.088;5.088;2024-01-11T01:36:54;10.60;;;6.90;;
15063;SDS011;7631;52.088;5.088;2024-01-11T01:39:19;11.73;;;7.00;;
15063;SDS011;7631;52.088;5.088;2024-01-11T01:41:44;11.50;;;6.73;;
15063;SDS011;7631;52.088;5.088;2024-01-11T01:44:09;10.87;;;7.20;;
15063;SDS011;7631;52.088;5.088;2024-01-11T01:46:35;10.67;;;7.20;;
15063;SDS011;7631;52.088;5.088;2024-01-11T01:49:00;11.83;;;7.10;;
15063;SDS011;7631;52.088;5.088;2024-01-11T01:51:26;11.30;;;7.03;;
15063;SDS011;7631;52.088;5.088;2024-01-11T01:53:52;10.97;;;6.97;;
15063;SDS011;7631;52.088;5.088;2024-01-11T01:56:18;9.80;;;6.97;;
15063;SDS011;7631;52.088;5.088;2024-01-11T01:58:44;10.70;;;7.27;;
15063;SDS011;7631;52.088;5.088;2024-01-11T02:01:09;12.33;;;6.93;;
15063;SDS011;7631;52.088;5.088;2024-01-11T02:03:35;11.97;;;7.03;;
15063;SDS011;7631;52.088;5.088;2024-01-11T02:06:00;11.73;;;7.37;;
15063;SDS011;7631;52.088;5.088;2024-01-11T02:08:26;11.77;;;7.73;;
15063;SDS011;7631;52.088;5.088;2024-01-11T02:10:52;10.90;;;7.53;;
15063;SDS011;7631;52.088;5.088;2024-01-11T02:13:17;12.97;;;7.33;;
15063;SDS011;7631;52.088;5.088;2024-01-11T02:15:43;11.73;;;7.20;;
15063;SDS011;7631;52.088;5.088;2024-01-11T02:18:08;10.80;;;7.00;;
15063;SDS011;7631;52.088;5.088;2024-01-11T02:20:34;10.07;;;6.77;;
15063;SDS011;7631;52.088;5.088;2024-01-11T02:23:04;10.80;;;7.00;;
15063;SDS011;7631;52.088;5.088;2024-01-11T02:25:30;10.47;;;6.77;;
15063;SDS011;7631;52.088;5.088;2024-01-11T02:27:55;10.67;;;7.10;;
15063;SDS011;7631;52.088;5.088;2024-01-11T02:30:20;12.90;;;7.30;;
15063;SDS011;7631;52.088;5.088;2024-01-11T02:32:46;12.27;;;7.93;;
15063;SDS011;7631;52.088;5.088;2024-01-11T02:35:13;10.70;;;7.60;;
15063;SDS011;7631;52.088;5.088;2024-01-11T02:37:39;11.50;;;8.13;;
15063;SDS011;7631;52.088;5.088;2024-01-11T02:40:06;11.27;;;7.30;;
15063;SDS011;7631;52.088;5.088;2024-01-11T02:42:32;12.17;;;7.57;;
15063;SDS011;7631;52.088;5.088;2024-01-11T02:44:57;12.47;;;7.43;;
15063;SDS011;7631;52.088;5.088;2024-01-11T02:47:22;9.63;;;6.93;;
15063;SDS011;7631;52.088;5.088;2024-01-11T02:49:48;12.07;;;7.57;;
15063;SDS011;7631;52.088;5.088;2024-01-11T02:52:13;12.10;;;7.50;;
15063;SDS011;7631;52.088;5.088;2024-01-11T02:54:38;12.13;;;8.07;;
15063;SDS011;7631;52.088;5.088;2024-01-11T02:57:04;13.27;;;7.43;;
15063;SDS011;7631;52.088;5.088;2024-01-11T02:59:29;12.20;;;7.67;;
15063;SDS011;7631;52.088;5.088;2024-01-11T03:01:54;11.10;;;7.67;;
15063;SDS011;7631;52.088;5.088;2024-01-11T03:04:19;12.43;;;7.80;;
15063;SDS011;7631;52.088;5.088;2024-01-11T03:06:45;11.57;;;7.17;;
15063;SDS011;7631;52.088;5.088;2024-01-11T03:09:10;12.30;;;7.83;;
15063;SDS011;7631;52.088;5.088;2024-01-11T03:11:35;11.57;;;6.77;;
15063;SDS011;7631;52.088;5.088;2024-01-11T03:14:02;14.13;;;7.80;;
15063;SDS011;7631;52.088;5.088;2024-01-11T03:16:27;13.63;;;7.90;;
15063;SDS011;7631;52.088;5.088;2024-01-11T03:18:52;12.13;;;7.47;;
15063;SDS011;7631;52.088;5.088;2024-01-11T03:21:18;12.00;;;7.27;;
15063;SDS011;7631;52.088;5.088;2024-01-11T03:23:43;12.53;;;7.83;;
15063;SDS011;7631;52.088;5.088;2024-01-11T03:26:12;13.10;;;7.93;;
15063;SDS011;7631;52.088;5.088;2024-01-11T03:28:37;13.20;;;8.20;;
15063;SDS011;7631;52.088;5.088;2024-01-11T03:31:03;12.30;;;7.70;;
15063;SDS011;7631;52.088;5.088;2024-01-11T03:33:28;12.77;;;7.87;;
15063;SDS011;7631;52.088;5.088;2024-01-11T03:35:53;12.77;;;8.50;;
15063;SDS011;7631;52.088;5.088;2024-01-11T03:38:18;11.67;;;8.10;;
15063;SDS011;7631;52.088;5.088;2024-01-11T03:40:43;13.33;;;8.33;;
15063;SDS011;7631;52.088;5.088;2024-01-11T03:43:09;12.87;;;8.37;;
15063;SDS011;7631;52.088;5.088;2024-01-11T03:45:34;12.53;;;7.70;;
15063;SDS011;7631;52.088;5.088;2024-01-11T03:47:59;13.13;;;7.93;;
15063;SDS011;7631;52.088;5.088;2024-01-11T03:50:24;12.07;;;8.07;;
15063;SDS011;7631;52.088;5.088;2024-01-11T03:52:49;13.63;;;8.83;;
15063;SDS011;7631;52.088;5.088;2024-01-11T03:55:15;13.00;;;8.23;;
15063;SDS011;7631;52.088;5.088;2024-01-11T03:57:40;13.20;;;8.07;;
15063;SDS011;7631;52.088;5.088;2024-01-11T04:00:05;13.70;;;7.97;;
15063;SDS011;7631;52.088;5.088;2024-01-11T04:02:31;13.47;;;8.60;;
15063;SDS011;7631;52.088;5.088;2024-01-11T04:04:56;16.57;;;9.63;;
15063;SDS011;7631;52.088;5.088;2024-01-11T04:07:21;14.90;;;8.90;;
15063;SDS011;7631;52.088;5.088;2024-01-11T04:09:47;15.77;;;9.33;;
15063;SDS011;7631;52.088;5.088;2024-01-11T04:12:12;14.33;;;9.07;;
15063;SDS011;7631;52.088;5.088;2024-01-11T04:14:38;14.23;;;9.10;;
15063;SDS011;7631;52.088;5.088;2024-01-11T04:17:03;15.17;;;9.13;;
15063;SDS011;7631;52.088;5.088;2024-01-11T04:19:29;15.47;;;9.53;;
15063;SDS011;7631;52.088;5.088;2024-01-11T04:21:54;15.23;;;9.43;;
15063;SDS011;7631;52.088;5.088;2024-01-11T04:24:19;15.67;;;9.77;;
15063;SDS011;7631;52.088;5.088;2024-01-11T04:26:44;15.17;;;9.77;;
15063;SDS011;7631;52.088;5.088;2024-01-11T04:29:10;16.77;;;10.03;;
15063;SDS011;7631;52.088;5.088;2024-01-11T04:31:35;16.10;;;9.80;;
15063;SDS011;7631;52.088;5.088;2024-01-11T04:34:01;16.60;;;10.23;;
15063;SDS011;7631;52.088;5.088;2024-01-11T04:36:26;17.50;;;10.43;;
15063;SDS011;7631;52.088;5.088;2024-01-11T04:38:52;17.30;;;10.57;;
15063;SDS011;7631;52.088;5.088;2024-01-11T04:41:17;19.43;;;11.70;;
15063;SDS011;7631;52.088;5.088;2024-01-11T04:43:43;17.43;;;11.23;;
15063;SDS011;7631;52.088;5.088;2024-01-11T04:46:21;17.87;;;11.60;;
15063;SDS011;7631;52.088;5.088;2024-01-11T04:48:47;17.83;;;10.90;;
15063;SDS011;7631;52.088;5.088;2024-01-11T04:51:14;18.40;;;11.27;;
15063;SDS011;7631;52.088;5.088;2024-01-11T04:53:39;18.20;;;11.50;;
15063;SDS011;7631;52.088;5.088;2024-01-11T04:58:30;20.00;;;12.20;;
15063;SDS011;7631;52.088;5.088;2024-01-11T05:00:56;18.23;;;11.43;;
15063;SDS011;7631;52.088;5.088;2024-01-11T05:03:21;20.13;;;11.80;;
15063;SDS011;7631;52.088;5.088;2024-01-11T05:05:46;19.70;;;12.20;;
15063;SDS011;7631;52.088;5.088;2024-01-11T05:08:11;18.17;;;11.57;;
15063;SDS011;7631;52.088;5.088;2024-01-11T05:10:36;20.30;;;12.93;;
15063;SDS011;7631;52.088;5.088;2024-01-11T05:13:02;18.17;;;11.93;;
15063;SDS011;7631;52.088;5.088;2024-01-11T05:15:27;21.40;;;12.80;;
15063;SDS011;7631;52.088;5.088;2024-01-11T05:17:54;17.70;;;11.37;;
15063;SDS011;7631;52.088;5.088;2024-01-11T05:20:19;20.17;;;12.30;;
15063;SDS011;7631;52.088;5.088;2024-01-11T05:22:45;17.40;;;12.07;;
15063;SDS011;7631;52.088;5.088;2024-01-11T05:25:10;19.03;;;12.27;;
15063;SDS011;7631;52.088;5.088;2024-01-11T05:27:35;20.97;;;13.07;;
15063;SDS011;7631;52.088;5.088;2024-01-11T05:30:00;19.13;;;13.07;;
15063;SDS011;7631;52.088;5.088;2024-01-11T05:32:25;21.53;;;13.47;;
15063;SDS011;7631;52.088;5.088;2024-01-11T05:34:51;19.47;;;12.23;;
15063;SDS011;7631;52.088;5.088;2024-01-11T05:37:16;20.87;;;13.53;;
15063;SDS011;7631;52.088;5.088;2024-01-11T05:39:41;19.53;;;12.30;;
15063;SDS011;7631;52.088;5.088;2024-01-11T05:42:06;20.23;;;13.00;;
15063;SDS011;7631;52.088;5.088;2024-01-11T05:44:32;20.33;;;13.10;;
15063;SDS011;7631;52.088;5.088;2024-01-11T05:46:57;19.73;;;12.83;;
15063;SDS011;7631;52.088;5.088;2024-01-11T05:49:22;18.53;;;12.37;;
15063;SDS011;7631;52.088;5.088;2024-01-11T05:51:47;21.53;;;13.30;;
15063;SDS011;7631;52.088;5.088;2024-01-11T05:54:13;19.07;;;12.60;;
15063;SDS011;7631;52.088;5.088;2024-01-11T05:56:38;20.33;;;12.70;;
15063;SDS011;7631;52.088;5.088;2024-01-11T05:59:03;21.33;;;13.43;;
15063;SDS011;7631;52.088;5.088;2024-01-11T06:01:29;19.47;;;12.20;;
15063;SDS011;7631;52.088;5.088;2024-01-11T06:03:54;21.43;;;12.67;;
15063;SDS011;7631;52.088;5.088;2024-01-11T06:06:20;19.87;;;13.27;;
15063;SDS011;7631;52.088;5.088;2024-01-11T06:08:45;20.77;;;12.47;;
15063;SDS011;7631;52.088;5.088;2024-01-11T06:11:10;20.13;;;12.80;;
15063;SDS011;7631;52.088;5.088;2024-01-11T06:13:35;21.43;;;12.60;;
15063;SDS011;7631;52.088;5.088;2024-01-11T06:16:01;21.00;;;13.27;;
15063;SDS011;7631;52.088;5.088;2024-01-11T06:18:26;20.53;;;13.57;;
15063;SDS011;7631;52.088;5.088;2024-01-11T06:20:51;20.47;;;12.63;;
15063;SDS011;7631;52.088;5.088;2024-01-11T06:23:16;23.77;;;13.83;;
15063;SDS011;7631;52.088;5.088;2024-01-11T06:25:42;20.10;;;13.67;;
15063;SDS011;7631;52.088;5.088;2024-01-11T06:28:07;21.10;;;13.67;;
15063;SDS011;7631;52.088;5.088;2024-01-11T06:30:34;21.23;;;13.37;;
15063;SDS011;7631;52.088;5.088;2024-01-11T06:32:59;21.67;;;13.23;;
15063;SDS011;7631;52.088;5.088;2024-01-11T06:35:25;22.17;;;14.10;;
15063;SDS011;7631;52.088;5.088;2024-01-11T06:37:50;19.73;;;13.23;;
15063;SDS011;7631;52.088;5.088;2024-01-11T06:40:15;20.40;;;13.17;;
15063;SDS011;7631;52.088;5.088;2024-01-11T06:42:40;21.80;;;13.73;;
15063;SDS011;7631;52.088;5.088;2024-01-11T06:45:06;21.30;;;14.07;;
15063;SDS011;7631;52.088;5.088;2024-01-11T06:47:31;22.43;;;13.50;;
15063;SDS011;7631;52.088;5.088;2024-01-11T06:49:56;20.47;;;13.07;;
15063;SDS011;7631;52.088;5.088;2024-01-11T06:52:21;22.00;;;14.13;;
15063;SDS011;7631;52.088;5.088;2024-01-11T06:54:47;22.60;;;14.50;;
15063;SDS011;7631;52.088;5.088;2024-01-11T06:57:12;20.73;;;13.70;;
15063;SDS011;7631;52.088;5.088;2024-01-11T06:59:37;21.87;;;14.00;;
15063;SDS011;7631;52.088;5.088;2024-01-11T07:02:03;22.33;;;14.10;;
15063;SDS011;7631;52.088;5.088;2024-01-11T07:04:28;23.07;;;14.73;;
15063;SDS011;7631;52.088;5.088;2024-01-11T07:06:53;23.20;;;14.87;;
15063;SDS011;7631;52.088;5.088;2024-01-11T07:09:18;25.57;;;15.47;;
15063;SDS011;7631;52.088;5.088;2024-01-11T07:11:44;22.60;;;15.07;;
15063;SDS011;7631;52.088;5.088;2024-01-11T07:14:09;24.97;;;15.07;;
15063;SDS011;7631;52.088;5.088;2024-01-11T07:16:34;24.60;;;15.50;;
15063;SDS011;7631;52.088;5.088;2024-01-11T07:19:00;23.97;;;15.43;;
15063;SDS011;7631;52.088;5.088;2024-01-11T07:21:25;24.07;;;14.87;;
15063;SDS011;7631;52.088;5.088;2024-01-11T07:24:00;25.67;;;15.47;;
15063;SDS011;7631;52.088;5.088;2024-01-11T07:26:25;24.83;;;15.63;;
15063;SDS011;7631;52.088;5.088;2024-01-11T07:28:50;22.43;;;14.23;;
15063;SDS011;7631;52.088;5.088;2024-01-11T07:31:16;25.87;;;16.33;;
15063;SDS011;7631;52.088;5.088;2024-01-11T07:33:41;24.33;;;18.00;;
15063;SDS011;7631;52.088;5.088;2024-01-11T07:36:06;29.40;;;23.57;;
15063;SDS011;7631;52.088;5.088;2024-01-11T07:38:32;30.70;;;24.45;;
15063;SDS011;7631;52.088;5.088;2024-01-11T07:40:57;31.37;;;20.80;;
15063;SDS011;7631;52.088;5.088;2024-01-11T07:43:22;33.57;;;21.00;;
15063;SDS011;7631;52.088;5.088;2024-01-11T07:45:48;30.87;;;20.37;;
15063;SDS011;7631;52.088;5.088;2024-01-11T07:48:16;33.20;;;26.80;;
15063;SDS011;7631;52.088;5.088;2024-01-11T07:50:45;30.87;;;21.20;;
15063;SDS011;7631;52.088;5.088;2024-01-11T07:53:10;29.77;;;20.53;;
15063;SDS011;7631;52.088;5.088;2024-01-11T07:55:36;31.37;;;20.73;;
15063;SDS011;7631;52.088;5.088;2024-01-11T07:58:02;32.57;;;20.53;;
15063;SDS011;7631;52.088;5.088;2024-01-11T08:00:27;30.80;;;18.90;;
15063;SDS011;7631;52.088;5.088;2024-01-11T08:02:53;33.63;;;20.33;;
15063;SDS011;7631;52.088;5.088;2024-01-11T08:05:19;32.50;;;19.67;;
15063;SDS011;7631;52.088;5.088;2024-01-11T08:07:44;29.17;;;19.43;;
15063;SDS011;7631;52.088;5.088;2024-01-11T08:10:10;29.80;;;19.07;;
15063;SDS011;7631;52.088;5.088;2024-01-11T08:12:35;29.50;;;19.30;;
15063;SDS011;7631;52.088;5.088;2024-01-11T08:15:01;29.87;;;18.90;;
15063;SDS011;7631;52.088;5.088;2024-01-11T08:17:26;30.93;;;19.03;;
15063;SDS011;7631;52.088;5.088;2024-01-11T08:19:51;31.03;;;19.27;;
15063;SDS011;7631;52.088;5.088;2024-01-11T08:22:16;30.30;;;18.50;;
15063;SDS011;7631;52.088;5.088;2024-01-11T08:24:42;29.77;;;18.97;;
15063;SDS011;7631;52.088;5.088;2024-01-11T08:27:07;28.33;;;17.83;;
15063;SDS011;7631;52.088;5.088;2024-01-11T08:29:32;29.93;;;18.20;;
15063;SDS011;7631;52.088;5.088;2024-01-11T08:31:58;30.00;;;18.07;;
15063;SDS011;7631;52.088;5.088;2024-01-11T08:34:23;27.60;;;18.20;;
15063;SDS011;7631;52.088;5.088;2024-01-11T08:36:51;30.03;;;18.80;;
15063;SDS011;7631;52.088;5.088;2024-01-11T08:39:16;28.77;;;18.03;;
15063;SDS011;7631;52.088;5.088;2024-01-11T08:41:42;29.10;;;17.37;;
15063;SDS011;7631;52.088;5.088;2024-01-11T08:44:07;29.07;;;18.57;;
15063;SDS011;7631;52.088;5.088;2024-01-11T08:46:32;28.17;;;18.53;;
15063;SDS011;7631;52.088;5.088;2024-01-11T08:48:58;30.10;;;17.30;;
15063;SDS011;7631;52.088;5.088;2024-01-11T08:51:24;30.13;;;19.13;;
15063;SDS011;7631;52.088;5.088;2024-01-11T08:53:49;27.03;;;16.87;;
15063;SDS011;7631;52.088;5.088;2024-01-11T08:56:14;30.90;;;18.07;;
15063;SDS011;7631;52.088;5.088;2024-01-11T08:58:41;28.73;;;17.73;;
15063;SDS011;7631;52.088;5.088;2024-01-11T09:01:07;25.80;;;16.60;;
15063;SDS011;7631;52.088;5.088;2024-01-11T09:03:33;28.50;;;17.50;;
15063;SDS011;7631;52.088;5.088;2024-01-11T09:05:59;25.83;;;17.20;;
15063;SDS011;7631;52.088;5.088;2024-01-11T09:08:24;30.27;;;18.83;;
15063;SDS011;7631;52.088;5.088;2024-01-11T09:10:49;28.90;;;18.40;;
15063;SDS011;7631;52.088;5.088;2024-01-11T09:13:14;31.90;;;18.77;;
15063;SDS011;7631;52.088;5.088;2024-01-11T09:15:42;27.57;;;17.17;;
15063;SDS011;7631;52.088;5.088;2024-01-11T09:18:08;27.43;;;17.47;;
15063;SDS011;7631;52.088;5.088;2024-01-11T09:20:34;27.67;;;17.30;;
15063;SDS011;7631;52.088;5.088;2024-01-11T09:22:59;29.03;;;17.83;;
15063;SDS011;7631;52.088;5.088;2024-01-11T09:25:24;28.47;;;18.27;;
15063;SDS011;7631;52.088;5.088;2024-01-11T09:27:50;28.80;;;17.43;;
15063;SDS011;7631;52.088;5.088;2024-01-11T09:30:15;26.33;;;16.77;;
15063;SDS011;7631;52.088;5.088;2024-01-11T09:32:40;28.60;;;17.43;;
15063;SDS011;7631;52.088;5.088;2024-01-11T09:35:06;28.60;;;17.83;;
15063;SDS011;7631;52.088;5.088;2024-01-11T09:37:31;29.33;;;18.10;;
15063;SDS011;7631;52.088;5.088;2024-01-11T09:39:57;27.83;;;17.33;;
15063;SDS011;7631;52.088;5.088;2024-01-11T09:42:22;29.77;;;18.13;;
15063;SDS011;7631;52.088;5.088;2024-01-11T09:44:47;28.97;;;18.80;;
15063;SDS011;7631;52.088;5.088;2024-01-11T09:47:13;28.97;;;17.27;;
15063;SDS011;7631;52.088;5.088;2024-01-11T09:49:41;28.00;;;17.27;;
15063;SDS011;7631;52.088;5.088;2024-01-11T09:52:07;28.80;;;17.50;;
15063;SDS011;7631;52.088;5.088;2024-01-11T09:54:34;26.83;;;17.13;;
15063;SDS011;7631;52.088;5.088;2024-01-11T09:57:00;26.97;;;16.97;;
15063;SDS011;7631;52.088;5.088;2024-01-11T09:59:26;27.30;;;17.50;;
15063;SDS011;7631;52.088;5.088;2024-01-11T10:01:51;27.30;;;17.63;;
15063;SDS011;7631;52.088;5.088;2024-01-11T10:04:17;28.03;;;17.60;;
15063;SDS011;7631;52.088;5.088;2024-01-11T10:06:43;26.53;;;17.63;;
15063;SDS011;7631;52.088;5.088;2024-01-11T10:09:08;27.83;;;17.63;;
15063;SDS011;7631;52.088;5.088;2024-01-11T10:11:33;24.47;;;16.27;;
15063;SDS011;7631;52.088;5.088;2024-01-11T10:14:00;25.77;;;16.57;;
15063;SDS011;7631;52.088;5.088;2024-01-11T10:16:27;26.13;;;16.80;;
15063;SDS011;7631;52.088;5.088;2024-01-11T10:18:55;24.67;;;16.50;;
15063;SDS011;7631;52.088;5.088;2024-01-11T10:21:20;26.53;;;16.97;;
15063;SDS011;7631;52.088;5.088;2024-01-11T10:23:46;25.33;;;16.40;;
15063;SDS011;7631;52.088;5.088;2024-01-11T10:26:11;24.37;;;15.40;;
15063;SDS011;7631;52.088;5.088;2024-01-11T10:28:36;25.73;;;16.77;;
15063;SDS011;7631;52.088;5.088;2024-01-11T10:31:03;22.97;;;15.60;;
15063;SDS011;7631;52.088;5.088;2024-01-11T10:33:28;27.17;;;16.57;;
15063;SDS011;7631;52.088;5.088;2024-01-11T10:35:53;25.00;;;15.47;;
15063;SDS011;7631;52.088;5.088;2024-01-11T10:38:18;26.07;;;16.13;;
15063;SDS011;7631;52.088;5.088;2024-01-11T10:40:45;26.10;;;16.53;;
15063;SDS011;7631;52.088;5.088;2024-01-11T10:43:11;24.50;;;15.10;;
15063;SDS011;7631;52.088;5.088;2024-01-11T10:45:37;24.30;;;15.40;;
15063;SDS011;7631;52.088;5.088;2024-01-11T10:48:06;24.80;;;16.00;;
15063;SDS011;7631;52.088;5.088;2024-01-11T10:50:36;23.60;;;15.17;;
15063;SDS011;7631;52.088;5.088;2024-01-11T10:55:49;21.17;;;14.90;;
15063;SDS011;7631;52.088;5.088;2024-01-11T10:58:15;24.93;;;15.57;;
15063;SDS011;7631;52.088;5.088;2024-01-11T11:00:40;22.23;;;14.83;;
15063;SDS011;7631;52.088;5.088;2024-01-11T11:03:06;22.33;;;13.90;;
15063;SDS011;7631;52.088;5.088;2024-01-11T11:05:32;22.90;;;14.90;;
15063;SDS011;7631;52.088;5.088;2024-01-11T11:08:00;20.40;;;13.97;;
15063;SDS011;7631;52.088;5.088;2024-01-11T11:10:26;21.87;;;14.03;;
15063;SDS011;7631;52.088;5.088;2024-01-11T11:12:52;23.00;;;13.60;;
15063;SDS011;7631;52.088;5.088;2024-01-11T11:15:19;22.03;;;13.97;;
15063;SDS011;7631;52.088;5.088;2024-01-11T11:17:45;20.63;;;13.20;;
15063;SDS011;7631;52.088;5.088;2024-01-11T11:20:11;21.53;;;13.90;;
15063;SDS011;7631;52.088;5.088;2024-01-11T11:22:42;20.47;;;13.47;;
15063;SDS011;7631;52.088;5.088;2024-01-11T11:25:10;20.87;;;13.47;;
15063;SDS011;7631;52.088;5.088;2024-01-11T11:27:36;19.57;;;13.17;;
15063;SDS011;7631;52.088;5.088;2024-01-11T11:30:02;21.37;;;14.03;;
15063;SDS011;7631;52.088;5.088;2024-01-11T11:32:38;19.30;;;13.70;;
15063;SDS011;7631;52.088;5.088;2024-01-11T11:35:04;19.60;;;12.73;;
15063;SDS011;7631;52.088;5.088;2024-01-11T11:37:30;19.20;;;12.57;;
15063;SDS011;7631;52.088;5.088;2024-01-11T11:39:57;19.50;;;13.63;;
15063;SDS011;7631;52.088;5.088;2024-01-11T11:42:22;19.57;;;11.93;;
15063;SDS011;7631;52.088;5.088;2024-01-11T11:44:48;15.73;;;11.60;;
15063;SDS011;7631;52.088;5.088;2024-01-11T11:47:18;19.50;;;13.57;;
15063;SDS011;7631;52.088;5.088;2024-01-11T11:52:28;19.00;;;12.63;;
15063;SDS011;7631;52.088;5.088;2024-01-11T11:54:53;20.10;;;13.03;;
15063;SDS011;7631;52.088;5.088;2024-01-11T11:57:19;18.93;;;12.53;;
15063;SDS011;7631;52.088;5.088;2024-01-11T11:59:45;20.13;;;12.77;;
15063;SDS011;7631;52.088;5.088;2024-01-11T12:02:11;18.53;;;11.43;;
15063;SDS011;7631;52.088;5.088;2024-01-11T12:04:40;17.70;;;11.97;;
15063;SDS011;7631;52.088;5.088;2024-01-11T12:07:05;18.43;;;12.17;;
15063;SDS011;7631;52.088;5.088;2024-01-11T12:09:31;17.33;;;11.33;;
15063;SDS011;7631;52.088;5.088;2024-01-11T12:11:56;16.37;;;11.33;;
15063;SDS011;7631;52.088;5.088;2024-01-11T12:14:21;17.33;;;11.47;;
15063;SDS011;7631;52.088;5.088;2024-01-11T12:16:55;17.73;;;11.70;;
15063;SDS011;7631;52.088;5.088;2024-01-11T12:19:20;17.03;;;11.77;;
15063;SDS011;7631;52.088;5.088;2024-01-11T12:21:45;16.67;;;11.60;;
15063;SDS011;7631;52.088;5.088;2024-01-11T12:24:10;18.30;;;12.10;;
15063;SDS011;7631;52.088;5.088;2024-01-11T12:26:36;17.60;;;11.90;;
15063;SDS011;7631;52.088;5.088;2024-01-11T12:29:02;14.17;;;10.37;;
15063;SDS011;7631;52.088;5.088;2024-01-11T12:31:27;15.53;;;11.27;;
15063;SDS011;7631;52.088;5.088;2024-01-11T12:33:52;17.03;;;11.20;;
15063;SDS011;7631;52.088;5.088;2024-01-11T12:36:18;15.27;;;10.53;;
15063;SDS011;7631;52.088;5.088;2024-01-11T12:38:47;15.03;;;10.30;;
15063;SDS011;7631;52.088;5.088;2024-01-11T12:41:13;17.60;;;11.20;;
15063;SDS011;7631;52.088;5.088;2024-01-11T12:43:38;16.30;;;10.63;;
15063;SDS011;7631;52.088;5.088;2024-01-11T12:46:03;15.63;;;11.03;;
15063;SDS011;7631;52.088;5.088;2024-01-11T12:48:29;15.53;;;11.10;;
15063;SDS011;7631;52.088;5.088;2024-01-11T12:50:55;16.70;;;10.70;;
15063;SDS011;7631;52.088;5.088;2024-01-11T12:53:20;16.57;;;11.30;;
15063;SDS011;7631;52.088;5.088;2024-01-11T12:55:45;13.27;;;9.73;;
15063;SDS011;7631;52.088;5.088;2024-01-11T12:58:11;14.80;;;9.87;;
15063;SDS011;7631;52.088;5.088;2024-01-11T13:00:37;14.40;;;10.37;;
15063;SDS011;7631;52.088;5.088;2024-01-11T13:03:02;14.97;;;10.50;;
15063;SDS011;7631;52.088;5.088;2024-01-11T13:05:28;14.80;;;10.17;;
15063;SDS011;7631;52.088;5.088;2024-01-11T13:07:55;12.53;;;9.30;;
15063;SDS011;7631;52.088;5.088;2024-01-11T13:10:21;14.93;;;10.40;;
15063;SDS011;7631;52.088;5.088;2024-01-11T13:12:49;14.47;;;10.37;;
15063;SDS011;7631;52.088;5.088;2024-01-11T13:15:14;14.23;;;9.93;;
15063;SDS011;7631;52.088;5.088;2024-01-11T13:17:39;13.83;;;9.73;;
15063;SDS011;7631;52.088;5.088;2024-01-11T13:20:05;14.07;;;9.90;;
15063;SDS011;7631;52.088;5.088;2024-01-11T13:22:32;13.60;;;9.10;;
15063;SDS011;7631;52.088;5.088;2024-01-11T13:24:57;13.40;;;9.10;;
15063;SDS011;7631;52.088;5.088;2024-01-11T13:27:22;13.47;;;9.57;;
15063;SDS011;7631;52.088;5.088;2024-01-11T13:29:47;13.17;;;9.03;;
15063;SDS011;7631;52.088;5.088;2024-01-11T13:32:13;13.17;;;8.57;;
15063;SDS011;7631;52.088;5.088;2024-01-11T13:34:38;13.53;;;9.20;;
15063;SDS011;7631;52.088;5.088;2024-01-11T13:37:03;13.27;;;9.60;;
15063;SDS011;7631;52.088;5.088;2024-01-11T13:39:28;14.17;;;8.97;;
15063;SDS011;7631;52.088;5.088;2024-01-11T13:41:53;14.77;;;9.47;;
15063;SDS011;7631;52.088;5.088;2024-01-11T13:44:19;13.63;;;8.90;;
15063;SDS011;7631;52.088;5.088;2024-01-11T13:46:44;14.20;;;10.10;;
15063;SDS011;7631;52.088;5.088;2024-01-11T13:49:09;12.87;;;9.50;;
15063;SDS011;7631;52.088;5.088;2024-01-11T13:51:35;13.23;;;9.30;;
15063;SDS011;7631;52.088;5.088;2024-01-11T13:54:00;13.27;;;9.33;;
15063;SDS011;7631;52.088;5.088;2024-01-11T13:56:26;13.63;;;9.47;;
15063;SDS011;7631;52.088;5.088;2024-01-11T13:58:51;11.60;;;8.47;;
15063;SDS011;7631;52.088;5.088;2024-01-11T14:01:17;11.83;;;8.07;;
15063;SDS011;7631;52.088;5.088;2024-01-11T14:03:42;11.60;;;8.53;;
15063;SDS011;7631;52.088;5.088;2024-01-11T14:06:07;11.73;;;8.83;;
15063;SDS011;7631;52.088;5.088;2024-01-11T14:08:32;10.87;;;8.57;;
15063;SDS011;7631;52.088;5.088;2024-01-11T14:10:57;11.67;;;8.33;;
15063;SDS011;7631;52.088;5.088;2024-01-11T14:13:23;13.67;;;9.00;;
15063;SDS011;7631;52.088;5.088;2024-01-11T14:15:48;13.17;;;9.17;;
15063;SDS011;7631;52.088;5.088;2024-01-11T14:18:15;12.93;;;8.97;;
15063;SDS011;7631;52.088;5.088;2024-01-11T14:20:40;12.47;;;8.63;;
15063;SDS011;7631;52.088;5.088;2024-01-11T14:23:06;12.37;;;8.20;;
15063;SDS011;7631;52.088;5.088;2024-01-11T14:25:31;11.87;;;8.63;;
15063;SDS011;7631;52.088;5.088;2024-01-11T14:27:56;12.23;;;8.40;;
15063;SDS011;7631;52.088;5.088;2024-01-11T14:30:22;12.23;;;8.10;;
15063;SDS011;7631;52.088;5.088;2024-01-11T14:32:47;12.00;;;8.77;;
15063;SDS011;7631;52.088;5.088;2024-01-11T14:35:12;12.07;;;8.17;;
15063;SDS011;7631;52.088;5.088;2024-01-11T14:37:38;11.33;;;8.37;;